Terminal Aerodrome Forecast
Issued by NWS

Home | Current Version | Previous Version | Graphics & Text | Print | Product List | Glossary On
Versions: 1 2 3 4 5 6 7 8 9 10 11 12 13 14 15
000
FTUS43 KFGF 181132
TAFBJI
TAF
KBJI 181132Z 1812/1912 22010KT P6SM BKN250 WS020/24040KT
     FM181400 24013KT P6SM BKN250
     FM181700 27020G28KT P6SM BKN250
     FM190100 27011KT P6SM SKC
     FM190200 27011KT P6SM SKC WS020/28040KT
     FM190600 26007KT P6SM SKC WS020/29040KT
     FM190700 26006KT P6SM SKC=

USA.gov is the U.S. government's official web portal to all federal, state and local government web resources and services.